Time;durP1;ratioP1;P1;durP2;ratioP2;P2;SDS_P1;SDS_P2;PMS_P1;PMS_P2;Temp;Humidity;BMP_temperature;BMP_pressure;BME280_temperature;BME280_humidity;BME280_pressure;Samples;Min_cycle;Max_cycle;Signal;HPM_P1;HPM_P2
2021/12/18 00:02:09;;;;;;;0.00;0.00;;;4.10;99.90;;;4.12;100.00;102558.88;5025084;28;20228;-84
2021/12/18 00:04:38;;;;;;;0.10;0.10;;;;;;;4.08;100.00;102562.09;5072029;28;20205;-84
2021/12/18 00:07:06;;;;;;;0.10;0.10;;;;;;;4.06;100.00;102566.31;5023961;28;20233;-83
2021/12/18 00:09:35;;;;;;;0.10;0.10;;;4.00;99.90;;;4.00;100.00;102558.94;5039232;28;20738;-84
2021/12/18 00:12:04;;;;;;;0.10;0.10;;;4.00;99.90;;;3.95;100.00;102552.50;5026149;28;20199;-84
2021/12/18 00:14:32;;;;;;;0.10;0.10;;;;;;;3.98;100.00;102560.56;5040999;28;20205;-84
2021/12/18 00:17:02;;;;;;;0.10;0.10;;;;;;;4.00;100.00;102565.91;5029298;28;20615;-84
2021/12/18 00:19:30;;;;;;;0.10;0.10;;;;;;;4.01;100.00;102563.38;5019710;28;20202;-84
2021/12/18 00:21:58;;;;;;;0.10;0.10;;;;;;;3.99;100.00;102562.38;5033709;28;20211;-83
2021/12/18 00:24:30;;;;;;;0.15;0.15;;;;;;;3.99;100.00;102559.75;5017021;28;20206;-84
2021/12/18 00:26:59;;;;;;;0.10;0.10;;;;;;;4.00;100.00;102564.19;5028687;28;20248;-84
2021/12/18 00:29:27;;;;;;;0.10;0.10;;;;;;;3.98;100.00;102567.50;5025938;28;20535;-84
2021/12/18 00:31:57;;;;;;;0.10;0.10;;;;;;;3.99;100.00;102570.22;5044003;28;20206;-84
2021/12/18 00:34:25;;;;;;;0.10;0.10;;;;;;;3.99;100.00;102558.84;5045845;28;20202;-84
2021/12/18 00:36:53;;;;;;;0.10;0.10;;;;;;;3.96;100.00;102562.16;5043763;28;20219;-84
2021/12/18 00:39:21;;;;;;;0.10;0.10;;;;;;;3.95;100.00;102565.56;5044823;28;20212;-84
2021/12/18 00:42:07;;;;;;;0.10;0.10;;;;;;;3.96;100.00;102572.63;5045452;28;20228;-84
2021/12/18 00:44:36;;;;;;;0.00;0.00;;;;;;;3.95;100.00;102568.19;5026638;28;20201;-84
2021/12/18 00:47:04;;;;;;;0.10;0.10;;;;;;;3.93;100.00;102566.28;5039087;28;20584;-84
2021/12/18 00:49:32;;;;;;;0.10;0.10;;;;;;;3.93;100.00;102577.66;5023051;28;20202;-84
2021/12/18 00:52:00;;;;;;;0.10;0.10;;;;;;;3.95;100.00;102581.28;5016262;28;20195;-84
2021/12/18 00:54:29;;;;;;;0.10;0.10;;;;;;;3.93;100.00;102588.13;5041889;28;20210;-85
2021/12/18 00:56:58;;;;;;;0.10;0.10;;;;;;;3.93;100.00;102588.13;5035133;28;20230;-84
2021/12/18 00:59:26;;;;;;;0.00;0.00;;;;;;;3.94;100.00;102589.03;5041019;28;20210;-84
2021/12/18 01:01:55;;;;;;;0.10;0.10;;;;;;;3.92;100.00;102590.63;5016721;28;20198;-84
2021/12/18 01:04:23;;;;;;;0.10;0.10;;;;;;;3.91;100.00;102600.19;5022224;28;20205;-85
2021/12/18 01:06:51;;;;;;;0.00;0.00;;;;;;;3.92;100.00;102599.41;5041642;28;20226;-84
2021/12/18 01:09:28;;;;;;;0.00;0.00;;;;;;;3.92;100.00;102607.25;5021073;28;20210;-85
2021/12/18 01:11:56;;;;;;;0.10;0.10;;;;;;;3.92;100.00;102603.72;5041708;28;20210;-84
2021/12/18 01:22:40;;;;;;;0.10;0.10;;;4.00;99.90;;;3.90;100.00;102613.16;5031791;28;20241;-84
2021/12/18 01:25:18;;;;;;;0.10;0.10;;;4.00;99.90;;;3.90;100.00;102607.91;5040423;28;20206;-84
2021/12/18 01:27:47;;;;;;;0.10;0.10;;;4.00;99.90;;;3.89;100.00;102612.25;5004324;28;20213;-84
2021/12/18 01:30:17;;;;;;;0.10;0.10;;;;;;;3.89;100.00;102607.00;5011757;28;20595;-84
2021/12/18 01:32:45;;;;;;;0.10;0.10;;;;;;;3.90;100.00;102614.09;5037399;28;20194;-85
2021/12/18 01:35:14;;;;;;;0.10;0.10;;;;;;;3.89;100.00;102609.63;5000738;28;20660;-84
2021/12/18 01:37:44;;;;;;;0.10;0.10;;;;;;;3.88;100.00;102613.03;5038238;28;20229;-84
2021/12/18 01:40:13;;;;;;;0.10;0.10;;;4.10;99.90;;;3.90;100.00;102615.75;5054428;28;20206;-84
2021/12/18 01:53:31;;;;;;;0.10;0.10;;;;;;;3.91;100.00;102610.66;5036111;28;20567;-83
2021/12/18 01:55:59;;;;;;;0.10;0.10;;;;;;;3.93;100.00;102613.41;5034961;28;20207;-84
2021/12/18 01:58:28;;;;;;;0.10;0.10;;;;;;;3.92;100.00;102609.88;5035824;28;20226;-87
2021/12/18 02:00:59;;;;;;;0.00;0.00;;;4.00;99.90;;;3.92;100.00;102608.97;5028085;28;20205;-85
2021/12/18 02:03:27;;;;;;;0.10;0.10;;;;;;;3.91;100.00;102608.06;5012233;28;20229;-83
2021/12/18 02:05:56;;;;;;;0.00;0.00;;;;;;;3.93;100.00;102613.41;5022280;28;20198;-84
2021/12/18 02:08:27;;;;;;;0.10;0.10;;;4.10;99.90;;;3.94;100.00;102602.13;5037180;28;20214;-85
2021/12/18 02:11:02;;;;;;;0.00;0.00;;;4.10;99.90;;;3.96;100.00;102604.03;5008692;28;20198;-84
2021/12/18 02:21:32;;;;;;;0.40;0.40;;;;;;;4.00;100.00;102616.56;5039401;28;20213;-84
2021/12/18 02:24:00;;;;;;;0.10;0.10;;;;;;;4.02;100.00;102614.03;5025490;28;20233;-84
2021/12/18 02:26:29;;;;;;;0.10;0.10;;;;;;;4.02;100.00;102608.81;5020519;28;20221;-83
2021/12/18 02:28:59;;;;;;;0.08;0.08;;;;;;;4.05;100.00;102606.41;5015949;28;20202;-83
2021/12/18 02:31:28;;;;;;;0.10;0.10;;;;;;;4.05;100.00;102616.88;5052817;28;20213;-83
2021/12/18 02:33:56;;;;;;;0.10;0.10;;;;;;;4.05;100.00;102615.16;5014504;28;20210;-83
2021/12/18 02:36:25;;;;;;;0.10;0.10;;;;;;;4.05;100.00;102619.50;5025099;28;20213;-83
2021/12/18 02:39:05;;;;;;;0.00;0.00;;;4.20;99.90;;;4.06;100.00;102613.47;5032947;28;20210;-83
2021/12/18 02:44:07;;;;;;;0.10;0.10;;;4.30;99.90;;;4.08;100.00;102614.47;5024316;28;20214;-83
2021/12/18 02:46:36;;;;;;;0.10;0.10;;;4.30;99.90;;;4.09;100.00;102617.19;5043844;28;20197;-84
2021/12/18 02:49:09;;;;;;;0.00;0.00;;;4.30;99.90;;;4.09;100.00;102619.81;5029985;28;20206;-83
2021/12/18 02:51:37;;;;;;;0.10;0.10;;;;;;;4.11;100.00;102623.44;5038096;28;20213;-83
2021/12/18 02:54:06;;;;;;;0.00;0.00;;;;;;;4.13;100.00;102615.69;5032583;28;20197;-83
2021/12/18 02:56:34;;;;;;;0.77;0.77;;;;;;;4.16;100.00;102616.81;5040099;28;20210;-83
2021/12/18 02:59:07;;;;;;;0.10;0.10;;;4.50;99.90;;;4.17;100.00;102623.88;5027186;28;20198;-83
2021/12/18 03:01:40;;;;;;;0.10;0.10;;;4.50;99.90;;;4.16;100.00;102616.81;5026408;28;20201;-83
2021/12/18 03:04:28;;;;;;;0.00;0.00;;;4.40;99.90;;;4.18;100.00;102615.22;5027114;28;20222;-83
2021/12/18 03:07:01;;;;;;;0.10;0.10;;;;;;;4.20;100.00;102611.78;5031167;28;20210;-83
2021/12/18 03:25:59;;;;;;;0.30;0.30;;;;;;;4.27;100.00;102612.31;5041003;28;20207;-83
2021/12/18 03:28:28;;;;;;;0.00;0.00;;;4.50;99.90;;;4.27;100.00;102612.31;5038621;28;20308;-83
2021/12/18 03:30:57;;;;;;;0.10;0.10;;;;;;;4.27;100.00;102611.41;5041823;28;20213;-83
2021/12/18 03:33:26;;;;;;;0.00;0.00;;;4.50;99.90;;;4.25;100.00;102603.44;5025530;28;20228;-83
2021/12/18 03:35:54;;;;;;;0.20;0.20;;;;;;;4.28;100.00;102602.75;5026952;28;20205;-83
2021/12/18 03:38:22;;;;;;;0.10;0.10;;;;;;;4.27;100.00;102606.19;5012180;28;20227;-83
2021/12/18 03:40:51;;;;;;;0.10;0.10;;;;;;;4.29;100.00;102609.81;5029000;28;20229;-83
2021/12/18 03:43:19;;;;;;;0.10;0.10;;;;;;;4.30;100.00;102603.78;5017814;28;20229;-83
2021/12/18 03:45:47;;;;;;;0.00;0.00;;;;;;;4.31;100.00;102610.81;5034513;28;20206;-83
2021/12/18 03:48:15;;;;;;;0.85;0.85;;;;;;;4.32;100.00;102603.06;5042632;28;20230;-83
2021/12/18 03:50:46;;;;;;;0.10;0.10;;;;;;;4.32;100.00;102599.53;5022056;28;20672;-83
2021/12/18 03:53:14;;;;;;;0.00;0.00;;;;;;;4.34;100.00;102604.09;5036057;28;20206;-82
2021/12/18 03:55:43;;;;;;;0.10;0.10;;;;;;;4.35;100.00;102613.75;5029303;28;20198;-82
2021/12/18 03:58:11;;;;;;;0.10;0.10;;;;;;;4.35;100.00;102608.53;5008658;28;20238;-82
2021/12/18 04:00:39;;;;;;;0.00;0.00;;;;;;;4.35;100.00;102605.00;5018504;28;20217;-82
2021/12/18 04:03:07;;;;;;;0.00;0.00;;;;;;;4.33;100.00;102612.75;5027568;28;20207;-82
2021/12/18 04:05:36;;;;;;;0.00;0.00;;;4.70;99.90;;;4.33;100.00;102610.13;5027944;28;20206;-83
2021/12/18 04:08:10;;;;;;;0.00;0.00;;;;;;;4.35;100.00;102607.63;5040926;28;20222;-83
2021/12/18 04:10:40;;;;;;;0.10;0.10;;;4.60;99.90;;;4.34;100.00;102611.03;5022003;28;20201;-82
2021/12/18 04:13:09;;;;;;;0.10;0.10;;;;;;;4.34;100.00;102613.66;5022957;28;20209;-82
2021/12/18 04:15:39;;;;;;;0.00;0.00;;;4.60;99.90;;;4.36;100.00;102614.66;5023239;28;20681;-82
2021/12/18 04:18:07;;;;;;;0.10;0.10;;;;;;;4.37;100.00;102620.00;5041659;28;20227;-82
2021/12/18 04:20:36;;;;;;;0.10;0.10;;;;;;;4.37;100.00;102625.25;5040043;28;20221;-82
2021/12/18 04:23:04;;;;;;;0.00;0.00;;;;;;;4.37;100.00;102627.88;5008718;28;20202;-83
2021/12/18 04:25:32;;;;;;;0.03;0.03;;;;;;;4.37;100.00;102622.63;5032455;28;20228;-83
2021/12/18 04:28:01;;;;;;;0.00;0.00;;;;;;;4.40;100.00;102622.84;5026734;28;20222;-81
2021/12/18 04:30:29;;;;;;;0.00;0.00;;;;;;;4.40;100.00;102627.19;5024302;28;20213;-82
2021/12/18 04:32:57;;;;;;;0.10;0.10;;;;;;;4.41;100.00;102624.66;5039013;28;20201;-83
2021/12/18 04:35:27;;;;;;;0.10;0.10;;;4.80;99.90;;;4.42;100.00;102628.19;5026044;28;20199;-82
2021/12/18 04:37:56;;;;;;;0.10;0.10;;;;;;;4.41;100.00;102629.00;5021676;28;20684;-83
2021/12/18 04:40:26;;;;;;;0.08;0.08;;;;;;;4.40;100.00;102635.03;5037646;28;20202;-82
2021/12/18 04:42:55;;;;;;;0.10;0.10;;;4.70;99.90;;;4.40;100.00;102637.66;5033133;28;20213;-82
2021/12/18 04:45:24;;;;;;;0.00;0.00;;;4.70;99.90;;;4.40;100.00;102630.69;5002527;28;20241;-82
2021/12/18 04:47:53;;;;;;;0.00;0.00;;;;;;;4.40;100.00;102640.28;5026113;28;20214;-83
2021/12/18 04:50:21;;;;;;;0.00;0.00;;;;;;;4.38;100.00;102645.41;5030419;28;20257;-82
2021/12/18 04:52:50;;;;;;;3.10;0.77;;;;;;;4.36;100.00;102633.91;5036288;28;20210;-83
2021/12/18 04:55:20;;;;;;;0.10;0.10;;;;;;;4.36;100.00;102640.88;5014224;28;20696;-83
2021/12/18 04:57:49;;;;;;;0.00;0.00;;;;;;;4.34;100.00;102651.25;5041730;28;20230;-83
2021/12/18 05:00:20;;;;;;;0.20;0.20;;;4.50;99.90;;;4.32;100.00;102647.59;5028293;28;20221;-82
2021/12/18 05:02:51;;;;;;;0.43;0.43;;;;;;;4.32;100.00;102641.47;5055321;28;20232;-83
2021/12/18 05:05:20;;;;;;;0.00;0.00;;;;;;;4.32;100.00;102657.16;5036204;28;20226;-83
2021/12/18 05:07:48;;;;;;;0.15;0.15;;;;;;;4.30;100.00;102657.06;5010173;28;20229;-83
2021/12/18 05:10:16;;;;;;;0.20;0.20;;;;;;;4.31;100.00;102650.13;5036647;28;20210;-82
2021/12/18 05:12:44;;;;;;;0.10;0.10;;;;;;;4.22;100.00;102645.16;5041087;28;20221;-82
2021/12/18 05:15:13;;;;;;;0.10;0.10;;;;;;;4.25;100.00;102658.47;5034394;28;20206;-84
2021/12/18 05:17:41;;;;;;;0.10;0.10;;;;;;;4.25;100.00;102654.94;5023523;28;20240;-83
2021/12/18 05:20:09;;;;;;;0.00;0.00;;;;;;;4.24;100.00;102655.72;5038680;28;20214;-83
2021/12/18 05:22:38;;;;;;;0.00;0.00;;;;;;;4.23;100.00;102659.16;5022473;28;20698;-82
2021/12/18 05:25:06;;;;;;;0.03;0.03;;;;;;;4.25;100.00;102654.94;5040886;28;20221;-82
2021/12/18 05:27:36;;;;;;;0.25;0.25;;;;;;;4.15;100.00;102646.44;5032110;28;20238;-83
2021/12/18 05:30:06;;;;;;;1.05;0.98;;;4.40;99.90;;;4.16;100.00;102649.97;5018593;28;20206;-82
2021/12/18 05:32:35;;;;;;;0.10;0.10;;;;;;;4.15;100.00;102656.91;5058371;28;20206;-82
2021/12/18 05:35:05;;;;;;;0.00;0.00;;;4.50;99.90;;;4.17;100.00;102660.53;5025929;28;20193;-82
2021/12/18 05:40:22;;;;;;;0.10;0.10;;;4.40;99.90;;;4.16;100.00;102668.28;5056995;28;20207;-83
2021/12/18 05:42:53;;;;;;;0.20;0.20;;;4.40;99.90;;;4.14;100.00;102659.41;5001096;28;20217;-82
2021/12/18 05:45:21;;;;;;;0.00;0.00;;;;;;;4.10;100.00;102662.63;5041341;28;20240;-82
2021/12/18 05:47:50;;;;;;;0.10;0.10;;;;;;;4.10;100.00;102671.38;5038041;28;20238;-83
2021/12/18 05:50:20;;;;;;;0.00;0.00;;;4.30;99.90;;;4.07;100.00;102668.56;5031361;28;20211;-82
2021/12/18 05:52:49;;;;;;;0.30;0.30;;;;;;;4.10;100.00;102671.38;5014954;28;20214;-82
2021/12/18 05:55:20;;;;;;;0.75;0.75;;;;;;;4.11;100.00;102683.69;5038905;28;20207;-80
2021/12/18 05:57:48;;;;;;;0.10;0.10;;;;;;;4.10;100.00;102675.72;5052635;23;20238;-77
2021/12/18 06:00:18;;;;;;;0.10;0.10;;;4.30;99.90;;;4.10;100.00;102679.25;5006956;28;20211;-78
2021/12/18 06:02:46;;;;;;;0.20;0.20;;;4.30;99.90;;;4.09;100.00;102676.50;4975702;28;20211;-78
2021/12/18 06:05:15;;;;;;;0.10;0.10;;;;;;;4.01;100.00;102673.34;4990716;28;20215;-78
2021/12/18 06:10:11;;;;;;;0.10;0.10;;;;;;;3.98;100.00;102667.91;5007497;28;20206;-78
2021/12/18 06:12:40;;;;;;;0.10;0.10;;;;;;;3.97;100.00;102668.69;5001637;28;20207;-77
2021/12/18 06:15:08;;;;;;;0.15;0.15;;;4.20;99.90;;;3.99;100.00;102679.28;5014748;28;20214;-77
2021/12/18 06:17:36;;;;;;;0.17;0.17;;;;;;;4.01;100.00;102678.59;4995712;28;20235;-78
2021/12/18 06:20:05;;;;;;;0.28;0.28;;;;;;;3.99;100.00;102680.19;5030528;28;20609;-79
2021/12/18 06:22:33;;;;;;;0.00;0.00;;;;;;;3.99;100.00;102674.94;5031022;28;20218;-77
2021/12/18 06:25:01;;;;;;;0.10;0.10;;;;;;;3.97;100.00;102673.94;5026298;28;20230;-75
2021/12/18 06:27:29;;;;;;;0.10;0.10;;;;;;;3.99;100.00;102677.56;5013037;28;20590;-75
2021/12/18 06:29:58;;;;;;;0.10;0.10;;;;;;;3.96;100.00;102676.44;5045282;28;20222;-75
2021/12/18 06:32:26;;;;;;;0.10;0.10;;;;;;;3.90;100.00;102669.06;5042084;28;20202;-78
2021/12/18 06:34:54;;;;;;;0.10;0.10;;;;;;;3.89;100.00;102663.69;5029921;28;20203;-78
2021/12/18 06:37:22;;;;;;;0.25;0.25;;;;;;;3.88;100.00;102670.63;5008811;28;20458;-80
2021/12/18 06:39:50;;;;;;;0.10;0.10;;;;;;;3.93;100.00;102677.13;5033700;28;20207;-78
2021/12/18 06:42:39;;;;;;;0.10;0.10;;;;;;;3.93;100.00;102673.59;5018597;28;20214;-77
2021/12/18 06:45:08;;;;;;;0.10;0.10;;;4.10;99.90;;;3.88;100.00;102667.09;5017288;28;21003;-77
2021/12/18 06:47:37;;;;;;;0.00;0.00;;;;;;;3.86;100.00;102667.91;5001135;28;20214;-78
2021/12/18 06:50:06;;;;;;;0.00;0.00;;;4.00;99.90;;;3.83;100.00;102659.81;5036134;28;20199;-78
2021/12/18 06:52:34;;;;;;;0.10;0.10;;;;;;;3.82;100.00;102663.25;5054588;28;20575;-77
2021/12/18 06:55:03;;;;;;;0.10;0.10;;;;;;;3.82;100.00;102660.63;5016897;28;20211;-77
2021/12/18 06:57:31;;;;;;;0.00;0.00;;;;;;;3.84;100.00;102660.75;5004274;28;20245;-78
2021/12/18 07:00:00;;;;;;;0.10;0.10;;;;;;;3.88;100.00;102662.78;5015368;28;20218;-78
2021/12/18 07:02:28;;;;;;;0.63;0.63;;;;;;;3.87;100.00;102666.19;5002473;28;20206;-77
2021/12/18 07:04:56;;;;;;;0.10;0.10;;;;;;;3.85;100.00;102662.56;5013590;28;20233;-77
2021/12/18 07:07:24;;;;;;;0.10;0.10;;;;;;;3.86;100.00;102665.28;5020316;28;20242;-78
2021/12/18 07:09:52;;;;;;;0.08;0.08;;;;;;;3.85;100.00;102670.41;5045093;28;20713;-77
2021/12/18 07:12:21;;;;;;;0.10;0.10;;;;;;;3.85;100.00;102657.31;5001349;28;20207;-77
2021/12/18 07:14:49;;;;;;;0.10;0.10;;;;;;;3.85;100.00;102666.09;4991927;28;20198;-77
2021/12/18 07:17:17;;;;;;;0.10;0.10;;;;;;;3.84;100.00;102668.59;4992772;28;20237;-77
2021/12/18 07:19:45;;;;;;;0.10;0.10;;;;;;;3.85;100.00;102666.09;5029100;28;20209;-77
2021/12/18 07:22:13;;;;;;;0.00;0.00;;;;;;;3.87;100.00;102671.44;4992838;28;20207;-77
2021/12/18 07:24:41;;;;;;;0.10;0.10;;;;;;;3.88;100.00;102674.94;4989972;28;20203;-77
2021/12/18 07:27:09;;;;;;;0.10;0.10;;;;;;;3.91;100.00;102675.22;4984787;28;20211;-77
2021/12/18 07:29:38;;;;;;;0.10;0.10;;;;;;;3.84;100.00;102679.97;5000159;28;20207;-77
2021/12/18 07:32:06;;;;;;;0.05;0.05;;;4.20;99.90;;;3.83;100.00;102670.28;5002279;28;20207;-77
2021/12/18 07:34:53;;;;;;;0.10;0.10;;;;;;;3.78;100.00;102668.16;5032477;28;20230;-77
2021/12/18 07:37:24;;;;;;;0.10;0.10;;;4.00;99.90;;;3.81;100.00;102666.66;5001920;28;20227;-77
2021/12/18 07:39:53;;;;;;;0.10;0.10;;;4.00;99.90;;;3.82;100.00;102667.56;5000489;28;20207;-77
2021/12/18 07:42:22;;;;;;;0.05;0.05;;;4.00;99.90;;;3.80;100.00;102664.84;5013040;28;20214;-78
2021/12/18 07:44:53;;;;;;;0.10;0.10;;;;;;;3.80;100.00;102656.09;4988472;28;20225;-77
2021/12/18 07:47:21;;;;;;;0.03;0.03;;;;;;;3.80;100.00;102661.31;5037216;28;20249;-79
2021/12/18 07:49:49;;;;;;;0.10;0.10;;;;;;;3.80;100.00;102659.59;5034558;28;20214;-78
2021/12/18 07:52:17;;;;;;;0.00;0.00;;;;;;;3.77;100.00;102651.53;5019520;28;20206;-77
2021/12/18 07:54:45;;;;;;;0.47;0.47;;;3.60;99.90;;;3.78;100.00;102650.75;5017284;28;20203;-78
2021/12/18 07:57:13;;;;;;;0.17;0.17;;;;;;;3.80;100.00;102658.69;5034343;28;20219;-78
2021/12/18 07:59:42;;;;;;;0.10;0.10;;;;;;;3.78;100.00;102655.97;5014353;28;20230;-78
2021/12/18 08:02:10;;;;;;;0.10;0.10;;;4.00;99.90;;;3.75;100.00;102647.00;5004455;28;20203;-77
2021/12/18 08:04:38;;;;;;;0.10;0.10;;;;;;;3.78;100.00;102657.69;5022274;28;20215;-77
2021/12/18 08:07:07;;;;;;;0.10;0.10;;;;;;;3.80;100.00;102656.09;5035106;28;20297;-77
2021/12/18 08:09:35;;;;;;;0.00;0.00;;;;;;;3.76;100.00;102654.03;5002069;28;20221;-77
2021/12/18 08:12:04;;;;;;;0.00;0.00;;;;;;;3.80;100.00;102649.13;5017948;28;20202;-77
2021/12/18 08:14:32;;;;;;;0.10;0.10;;;;;;;3.83;100.00;102662.44;5034674;28;20207;-79
2021/12/18 08:17:00;;;;;;;0.10;0.10;;;;;;;3.83;100.00;102656.31;5002175;28;20205;-78
2021/12/18 08:19:28;;;;;;;0.00;0.00;;;;;;;3.81;100.00;102655.28;5014794;28;20229;-78
2021/12/18 08:21:56;;;;;;;0.10;0.10;;;;;;;3.84;100.00;102665.97;5023083;28;20230;-78
2021/12/18 08:24:24;;;;;;;0.00;0.00;;;;;;;3.86;100.00;102665.28;5011511;28;20211;-78
2021/12/18 08:26:52;;;;;;;0.10;0.10;;;;;;;3.88;100.00;102667.09;5033523;28;20246;-78
2021/12/18 08:29:21;;;;;;;0.00;0.00;;;;;;;3.88;100.00;102668.00;5017182;28;20290;-77
2021/12/18 08:31:51;;;;;;;0.10;0.10;;;;;;;3.89;100.00;102663.69;5002456;28;20202;-78
2021/12/18 08:34:21;;;;;;;0.10;0.10;;;4.10;99.90;;;3.85;100.00;102670.41;5019082;28;20206;-78
2021/12/18 08:36:50;;;;;;;0.30;0.30;;;;;;;3.89;100.00;102675.06;5050420;28;20207;-77
2021/12/18 08:39:18;;;;;;;0.80;0.80;;;;;;;3.89;100.00;102674.16;5001240;28;20218;-78
2021/12/18 08:41:46;;;;;;;0.10;0.10;;;4.30;99.90;;;3.89;100.00;102669.81;5016932;28;20207;-77
2021/12/18 08:44:15;;;;;;;0.43;0.43;;;;;;;3.92;100.00;102671.78;5014794;28;20221;-78
2021/12/18 08:46:43;;;;;;;0.20;0.20;;;;;;;3.89;100.00;102669.81;5010410;28;20245;-78
2021/12/18 08:49:11;;;;;;;0.05;0.05;;;;;;;3.95;100.00;102675.53;5005451;28;20230;-78
2021/12/18 08:51:39;;;;;;;0.10;0.10;;;;;;;3.99;100.00;102679.28;5026100;28;20218;-78
2021/12/18 08:54:08;;;;;;;0.00;0.00;;;;;;;3.97;100.00;102675.66;5027406;28;20214;-79
2021/12/18 08:56:36;;;;;;;0.32;0.32;;;;;;;3.98;100.00;102677.47;5011600;28;20202;-78
2021/12/18 08:59:05;;;;;;;0.10;0.10;;;;;;;4.02;100.00;102682.13;5015520;28;20245;-79
2021/12/18 09:01:33;;;;;;;0.10;0.10;;;;;;;4.04;100.00;102686.66;5022872;28;20215;-79
2021/12/18 09:04:06;;;;;;;0.50;0.50;;;4.30;99.90;;;4.04;100.00;102688.38;5006862;28;20211;-78
2021/12/18 09:06:34;;;;;;;0.10;0.10;;;4.30;99.90;;;4.02;100.00;102674.25;5012296;28;20223;-78
2021/12/18 09:09:03;;;;;;;0.10;0.10;;;4.20;99.90;;;4.04;100.00;102681.44;5031648;28;20222;-78
2021/12/18 09:11:31;;;;;;;0.10;0.10;;;4.50;99.90;;;4.06;100.00;102685.06;4995447;28;20211;-78
2021/12/18 09:14:02;;;;;;;0.10;0.10;;;;;;;4.09;100.00;102689.59;5013197;28;20230;-77
2021/12/18 09:16:32;;;;;;;0.30;0.30;;;;;;;4.12;100.00;102687.22;5041726;28;20654;-79
2021/12/18 09:19:00;;;;;;;0.10;0.10;;;;;;;4.13;100.00;102694.25;5023942;28;20239;-78
2021/12/18 09:21:28;;;;;;;0.00;0.00;;;4.30;99.90;;;4.10;100.00;102683.56;5010193;28;20202;-78
2021/12/18 09:23:57;;;;;;;0.10;0.10;;;;;;;4.13;100.00;102689.03;5008898;28;20214;-78
2021/12/18 09:26:26;;;;;;;0.10;0.10;;;;;;;4.14;100.00;102697.00;5004047;28;20226;-78
2021/12/18 09:28:54;;;;;;;0.10;0.10;;;;;;;4.17;100.00;102697.22;5006163;28;20227;-79
2021/12/18 09:31:25;;;;;;;0.30;0.30;;;4.40;99.90;;;4.17;100.00;102691.97;5006738;28;20218;-78
2021/12/18 09:33:53;;;;;;;0.10;0.10;;;;;;;4.21;100.00;102700.03;5039875;28;20214;-78
2021/12/18 09:36:22;;;;;;;0.10;0.10;;;;;;;4.25;100.00;102696.84;5036635;28;20210;-77
2021/12/18 09:38:50;;;;;;;0.10;0.10;;;;;;;4.22;100.00;102694.91;5009340;28;20487;-77
2021/12/18 09:41:19;;;;;;;0.40;0.40;;;;;;;4.23;100.00;102693.19;5023525;28;20207;-78
2021/12/18 09:43:47;;;;;;;0.10;0.10;;;;;;;4.18;100.00;102691.16;4991524;28;20695;-77
2021/12/18 09:46:16;;;;;;;0.10;0.10;;;;;;;4.22;100.00;102691.38;4998074;28;20257;-80
2021/12/18 09:48:45;;;;;;;0.30;0.30;;;4.50;99.90;;;4.27;100.00;102693.53;4992296;28;20243;-78
2021/12/18 09:51:24;;;;;;;0.10;0.10;;;4.50;99.90;;;4.25;100.00;102689.88;5005100;28;20207;-77
2021/12/18 09:53:56;;;;;;;0.10;0.10;;;;;;;4.30;100.00;102696.34;5008903;28;20265;-77
2021/12/18 09:56:29;;;;;;;0.17;0.17;;;4.50;99.90;;;4.32;100.00;102692.13;5007981;28;20205;-78
2021/12/18 09:58:57;;;;;;;0.00;0.00;;;;;;;4.33;100.00;102686.09;5006849;28;20626;-77
2021/12/18 10:01:25;;;;;;;0.10;0.10;;;;;;;4.31;100.00;102679.84;5010091;28;20219;-78
2021/12/18 10:03:59;;;;;;;0.10;0.10;;;4.60;99.90;;;4.34;100.00;102682.69;5009595;28;20214;-79
2021/12/18 10:06:38;;;;;;;0.10;0.10;;;;;;;4.40;100.00;102674.34;5018602;28;20229;-78
2021/12/18 10:09:06;;;;;;;0.10;0.10;;;;;;;4.37;100.00;102664.56;5038022;28;20226;-77
2021/12/18 10:11:48;;;;;;;0.13;0.13;;;4.60;99.90;;;4.42;100.00;102672.72;5029847;28;20573;-78
2021/12/18 10:14:19;;;;;;;0.15;0.15;;;4.60;99.90;;;4.36;100.00;102665.34;5039232;28;20218;-78
2021/12/18 10:16:53;;;;;;;0.20;0.20;;;4.70;99.90;;;4.42;100.00;102670.09;5010309;28;20206;-78
2021/12/18 10:19:33;;;;;;;0.10;0.10;;;4.30;99.90;;;4.42;100.00;102672.72;5013368;28;20221;-78
2021/12/18 10:22:07;;;;;;;0.03;0.03;;;4.60;99.90;;;4.42;100.00;102672.72;5048718;28;20212;-79
2021/12/18 10:24:41;;;;;;;0.10;0.10;;;4.60;99.90;;;4.38;100.00;102669.00;5047779;28;20214;-78
2021/12/18 10:27:23;;;;;;;0.20;0.20;;;4.60;99.90;;;4.39;100.00;102675.13;5015519;28;20214;-78
2021/12/18 10:29:54;;;;;;;0.10;0.10;;;4.60;99.90;;;4.42;100.00;102673.63;5028335;28;20198;-80
2021/12/18 10:32:30;;;;;;;0.08;0.08;;;4.70;99.90;;;4.40;100.00;102670.00;5028584;28;20203;-78
2021/12/18 10:34:59;;;;;;;0.10;0.10;;;;;;;4.38;100.00;102660.22;5006169;28;20206;-77
2021/12/18 10:37:32;;;;;;;0.10;0.10;;;4.60;99.90;;;4.32;100.00;102651.94;5023202;28;20712;-77
2021/12/18 10:40:10;;;;;;;0.10;0.10;;;4.50;99.90;;;4.33;100.00;102654.66;5004016;28;20211;-78
2021/12/18 10:42:45;;;;;;;0.52;0.52;;;4.60;99.90;;;4.39;100.00;102649.84;5005239;28;20199;-79
2021/12/18 10:45:16;;;;;;;0.10;0.10;;;4.60;99.90;;;4.39;100.00;102648.94;5023679;28;20210;-78
2021/12/18 10:48:01;;;;;;;0.10;0.10;;;4.50;99.90;;;4.33;100.00;102643.28;5008637;28;20245;-78
2021/12/18 10:50:50;;;;;;;0.85;0.85;;;4.60;99.90;;;4.42;100.00;102655.28;5041632;28;20218;-79
2021/12/18 10:53:31;;;;;;;0.10;0.10;;;4.60;99.90;;;4.43;100.00;102651.88;5022097;28;20211;-79
2021/12/18 10:56:02;;;;;;;0.00;0.00;;;4.60;99.90;;;4.39;100.00;102633.22;5009836;28;20214;-79
2021/12/18 10:58:37;;;;;;;0.00;0.00;;;4.70;99.90;;;4.44;100.00;102637.06;4993093;28;20755;-79
2021/12/18 11:01:15;;;;;;;0.10;0.10;;;4.70;99.90;;;4.48;100.00;102632.13;5005569;28;20206;-79
2021/12/18 11:03:51;;;;;;;0.00;0.00;;;4.70;99.90;;;4.44;100.00;102630.09;5045427;28;20215;-79
2021/12/18 11:06:35;;;;;;;0.20;0.20;;;4.70;99.90;;;4.47;100.00;102632.03;5024375;28;20207;-79
2021/12/18 11:09:12;;;;;;;0.00;0.00;;;4.70;99.90;;;4.45;100.00;102626.69;5023604;28;20226;-79
2021/12/18 11:14:40;;;;;;;0.03;0.03;;;4.80;99.90;;;4.59;100.00;102624.09;5006433;28;20675;-79
2021/12/18 11:17:15;;;;;;;0.10;0.10;;;4.80;99.90;;;4.57;100.00;102621.38;5041361;28;20225;-79
2021/12/18 11:19:43;;;;;;;0.45;0.45;;;;;;;4.60;100.00;102618.06;5009143;28;20214;-80
2021/12/18 11:22:18;;;;;;;0.52;0.52;;;4.80;99.90;;;4.64;100.00;102620.06;5027421;28;20210;-79
2021/12/18 11:25:04;;;;;;;0.10;0.10;;;4.80;99.90;;;4.62;100.00;102619.06;5025824;28;20206;-79
2021/12/18 11:27:35;;;;;;;0.00;0.00;;;4.90;99.90;;;4.59;100.00;102614.53;4996740;28;20246;-78
2021/12/18 11:30:11;;;;;;;0.10;0.10;;;4.80;99.90;;;4.64;100.00;102605.25;5031510;28;20199;-78
2021/12/18 11:32:54;;;;;;;0.00;0.00;;;4.90;99.90;;;4.61;100.00;102604.16;5003677;28;20202;-79
2021/12/18 11:35:27;;;;;;;0.20;0.20;;;4.80;99.90;;;4.62;100.00;102606.88;5032154;28;20210;-79
2021/12/18 11:38:07;;;;;;;0.10;0.10;;;4.70;99.90;;;4.66;100.00;102607.97;5026173;28;20238;-80
2021/12/18 11:40:37;;;;;;;0.10;0.10;;;4.80;99.90;;;4.61;100.00;102593.66;5022349;28;20221;-79
2021/12/18 11:43:43;;;;;;;0.00;0.00;;;4.90;99.90;;;4.62;100.00;102591.13;5016705;28;20219;-80
2021/12/18 11:46:37;;;;;;;0.10;0.10;;;4.50;99.90;;;4.66;100.00;102595.78;5030071;28;20217;-80
2021/12/18 11:49:08;;;;;;;0.00;0.00;;;5.00;99.90;;;4.73;100.00;102599.72;5010823;28;20245;-80
2021/12/18 11:51:37;;;;;;;0.10;0.10;;;5.00;99.90;;;4.72;100.00;102604.06;5032347;28;20203;-79
2021/12/18 11:54:51;;;;;;;0.10;0.10;;;5.00;99.90;;;4.71;100.00;102593.47;5002717;28;20199;-83
2021/12/18 11:57:58;;;;;;;0.10;0.10;;;5.00;99.90;;;4.76;100.00;102599.94;5012432;28;20238;-78
2021/12/18 12:00:43;;;;;;;0.03;0.03;;;5.00;99.90;;;4.74;100.00;102599.81;4914849;29;20202;-79
2021/12/18 12:03:26;;;;;;;0.10;0.10;;;4.90;99.90;;;4.73;100.00;102589.25;5041128;28;20203;-78
2021/12/18 12:05:57;;;;;;;0.10;0.10;;;4.90;99.90;;;4.69;100.00;102580.25;5018144;28;20198;-77
2021/12/18 12:08:40;;;;;;;0.10;0.10;;;4.90;99.90;;;4.67;100.00;102578.34;5011989;28;20245;-78
2021/12/18 12:11:23;;;;;;;0.10;0.10;;;4.90;99.90;;;4.68;100.00;102572.31;5028438;28;20211;-79